sensor_id;sensor_type;location;lat;lon;timestamp;P1;durP1;ratioP1;P2;durP2;ratioP2
53549;SDS011;67273;52.914;-0.982;2023-06-14T00:01:19;4.28;;;2.80;;
53549;SDS011;67273;52.914;-0.982;2023-06-14T00:03:47;4.35;;;2.47;;
53549;SDS011;67273;52.914;-0.982;2023-06-14T00:06:15;4.75;;;2.60;;
53549;SDS011;67273;52.914;-0.982;2023-06-14T00:08:40;5.10;;;2.80;;
53549;SDS011;67273;52.914;-0.982;2023-06-14T00:11:06;4.85;;;2.85;;
53549;SDS011;67273;52.914;-0.982;2023-06-14T00:13:32;7.00;;;2.90;;
53549;SDS011;67273;52.914;-0.982;2023-06-14T00:15:58;4.43;;;2.63;;
53549;SDS011;67273;52.914;-0.982;2023-06-14T00:18:24;4.40;;;2.70;;
53549;SDS011;67273;52.914;-0.982;2023-06-14T00:20:50;4.22;;;2.50;;
53549;SDS011;67273;52.914;-0.982;2023-06-14T00:23:18;5.03;;;2.83;;
53549;SDS011;67273;52.914;-0.982;2023-06-14T00:25:44;5.53;;;2.55;;
53549;SDS011;67273;52.914;-0.982;2023-06-14T00:28:10;5.15;;;2.50;;
53549;SDS011;67273;52.914;-0.982;2023-06-14T00:30:35;5.80;;;3.00;;
53549;SDS011;67273;52.914;-0.982;2023-06-14T00:33:01;5.30;;;2.55;;
53549;SDS011;67273;52.914;-0.982;2023-06-14T00:35:27;5.10;;;2.78;;
53549;SDS011;67273;52.914;-0.982;2023-06-14T00:37:53;4.03;;;2.40;;
53549;SDS011;67273;52.914;-0.982;2023-06-14T00:40:21;4.32;;;2.40;;
53549;SDS011;67273;52.914;-0.982;2023-06-14T00:42:47;3.30;;;2.28;;
53549;SDS011;67273;52.914;-0.982;2023-06-14T00:45:13;3.35;;;2.40;;
53549;SDS011;67273;52.914;-0.982;2023-06-14T00:47:40;6.18;;;2.70;;
53549;SDS011;67273;52.914;-0.982;2023-06-14T00:50:09;4.28;;;2.33;;
53549;SDS011;67273;52.914;-0.982;2023-06-14T00:52:35;3.65;;;2.28;;
53549;SDS011;67273;52.914;-0.982;2023-06-14T00:55:01;4.82;;;2.63;;
53549;SDS011;67273;52.914;-0.982;2023-06-14T00:57:30;2.92;;;2.05;;
53549;SDS011;67273;52.914;-0.982;2023-06-14T00:59:55;3.10;;;2.28;;
53549;SDS011;67273;52.914;-0.982;2023-06-14T01:02:21;4.25;;;2.53;;
53549;SDS011;67273;52.914;-0.982;2023-06-14T01:04:48;3.35;;;2.40;;
53549;SDS011;67273;52.914;-0.982;2023-06-14T01:07:18;4.00;;;2.50;;
53549;SDS011;67273;52.914;-0.982;2023-06-14T01:09:58;4.05;;;2.53;;
53549;SDS011;67273;52.914;-0.982;2023-06-14T01:12:39;4.93;;;2.72;;
53549;SDS011;67273;52.914;-0.982;2023-06-14T01:15:13;4.95;;;2.65;;
53549;SDS011;67273;52.914;-0.982;2023-06-14T01:17:40;4.63;;;2.30;;
53549;SDS011;67273;52.914;-0.982;2023-06-14T01:20:10;3.65;;;2.50;;
53549;SDS011;67273;52.914;-0.982;2023-06-14T01:22:45;4.75;;;2.40;;
53549;SDS011;67273;52.914;-0.982;2023-06-14T01:25:15;4.13;;;2.40;;
53549;SDS011;67273;52.914;-0.982;2023-06-14T01:27:42;3.72;;;2.28;;
53549;SDS011;67273;52.914;-0.982;2023-06-14T01:30:09;4.78;;;2.72;;
53549;SDS011;67273;52.914;-0.982;2023-06-14T01:32:36;3.63;;;2.25;;
53549;SDS011;67273;52.914;-0.982;2023-06-14T01:35:03;4.38;;;2.35;;
53549;SDS011;67273;52.914;-0.982;2023-06-14T01:37:30;4.03;;;2.25;;
53549;SDS011;67273;52.914;-0.982;2023-06-14T01:40:00;4.30;;;2.55;;
53549;SDS011;67273;52.914;-0.982;2023-06-14T01:42:27;6.70;;;2.45;;
53549;SDS011;67273;52.914;-0.982;2023-06-14T01:44:53;4.07;;;2.63;;
53549;SDS011;67273;52.914;-0.982;2023-06-14T01:47:20;3.83;;;2.50;;
53549;SDS011;67273;52.914;-0.982;2023-06-14T01:49:47;4.93;;;2.50;;
53549;SDS011;67273;52.914;-0.982;2023-06-14T01:52:16;3.85;;;2.03;;
53549;SDS011;67273;52.914;-0.982;2023-06-14T01:54:43;3.92;;;2.65;;
53549;SDS011;67273;52.914;-0.982;2023-06-14T01:57:15;3.70;;;2.50;;
53549;SDS011;67273;52.914;-0.982;2023-06-14T01:59:40;3.28;;;2.38;;
53549;SDS011;67273;52.914;-0.982;2023-06-14T02:02:07;5.32;;;2.58;;
53549;SDS011;67273;52.914;-0.982;2023-06-14T02:04:34;3.45;;;2.30;;
53549;SDS011;67273;52.914;-0.982;2023-06-14T02:06:59;4.03;;;2.60;;
53549;SDS011;67273;52.914;-0.982;2023-06-14T02:09:25;3.65;;;2.45;;
53549;SDS011;67273;52.914;-0.982;2023-06-14T02:11:53;4.55;;;2.60;;
53549;SDS011;67273;52.914;-0.982;2023-06-14T02:14:20;4.20;;;2.58;;
53549;SDS011;67273;52.914;-0.982;2023-06-14T02:16:46;5.07;;;2.55;;
53549;SDS011;67273;52.914;-0.982;2023-06-14T02:19:14;4.15;;;2.50;;
53549;SDS011;67273;52.914;-0.982;2023-06-14T02:21:40;3.72;;;2.38;;
53549;SDS011;67273;52.914;-0.982;2023-06-14T02:24:06;3.45;;;2.45;;
53549;SDS011;67273;52.914;-0.982;2023-06-14T02:26:32;5.05;;;2.83;;
53549;SDS011;67273;52.914;-0.982;2023-06-14T02:28:58;4.75;;;2.88;;
53549;SDS011;67273;52.914;-0.982;2023-06-14T02:31:25;4.82;;;2.70;;
53549;SDS011;67273;52.914;-0.982;2023-06-14T02:33:50;4.03;;;2.70;;
53549;SDS011;67273;52.914;-0.982;2023-06-14T02:36:16;5.63;;;3.00;;
53549;SDS011;67273;52.914;-0.982;2023-06-14T02:38:42;5.68;;;2.97;;
53549;SDS011;67273;52.914;-0.982;2023-06-14T02:41:08;3.95;;;2.63;;
53549;SDS011;67273;52.914;-0.982;2023-06-14T02:43:34;3.75;;;2.67;;
53549;SDS011;67273;52.914;-0.982;2023-06-14T02:46:00;3.70;;;2.35;;
53549;SDS011;67273;52.914;-0.982;2023-06-14T02:48:27;4.22;;;2.60;;
53549;SDS011;67273;52.914;-0.982;2023-06-14T02:50:53;4.30;;;2.50;;
53549;SDS011;67273;52.914;-0.982;2023-06-14T02:53:19;4.00;;;2.47;;
53549;SDS011;67273;52.914;-0.982;2023-06-14T02:55:46;4.43;;;2.38;;
53549;SDS011;67273;52.914;-0.982;2023-06-14T02:58:12;2.97;;;2.22;;
53549;SDS011;67273;52.914;-0.982;2023-06-14T03:00:38;4.95;;;2.42;;
53549;SDS011;67273;52.914;-0.982;2023-06-14T03:03:06;6.35;;;3.05;;
53549;SDS011;67273;52.914;-0.982;2023-06-14T03:05:39;4.53;;;2.58;;
53549;SDS011;67273;52.914;-0.982;2023-06-14T03:08:11;4.32;;;2.17;;
53549;SDS011;67273;52.914;-0.982;2023-06-14T03:10:42;6.15;;;2.70;;
53549;SDS011;67273;52.914;-0.982;2023-06-14T03:13:09;3.25;;;2.20;;
53549;SDS011;67273;52.914;-0.982;2023-06-14T03:15:36;3.70;;;2.35;;
53549;SDS011;67273;52.914;-0.982;2023-06-14T03:18:04;6.30;;;2.72;;
53549;SDS011;67273;52.914;-0.982;2023-06-14T03:20:30;4.70;;;2.60;;
53549;SDS011;67273;52.914;-0.982;2023-06-14T03:23:00;3.83;;;2.40;;
53549;SDS011;67273;52.914;-0.982;2023-06-14T03:25:27;3.17;;;2.38;;
53549;SDS011;67273;52.914;-0.982;2023-06-14T03:27:55;3.90;;;2.70;;
53549;SDS011;67273;52.914;-0.982;2023-06-14T03:30:21;3.47;;;2.42;;
53549;SDS011;67273;52.914;-0.982;2023-06-14T03:32:48;6.53;;;2.83;;
53549;SDS011;67273;52.914;-0.982;2023-06-14T03:35:17;3.90;;;2.38;;
53549;SDS011;67273;52.914;-0.982;2023-06-14T03:37:44;4.90;;;2.60;;
53549;SDS011;67273;52.914;-0.982;2023-06-14T03:40:14;4.13;;;2.60;;
53549;SDS011;67273;52.914;-0.982;2023-06-14T03:42:43;4.93;;;2.80;;
53549;SDS011;67273;52.914;-0.982;2023-06-14T03:45:10;4.50;;;2.95;;
53549;SDS011;67273;52.914;-0.982;2023-06-14T03:47:36;4.10;;;2.58;;
53549;SDS011;67273;52.914;-0.982;2023-06-14T03:50:02;4.22;;;2.70;;
53549;SDS011;67273;52.914;-0.982;2023-06-14T03:52:29;4.30;;;2.70;;
53549;SDS011;67273;52.914;-0.982;2023-06-14T03:54:55;4.50;;;2.63;;
53549;SDS011;67273;52.914;-0.982;2023-06-14T03:57:23;4.75;;;2.95;;
53549;SDS011;67273;52.914;-0.982;2023-06-14T03:59:49;3.85;;;2.55;;
53549;SDS011;67273;52.914;-0.982;2023-06-14T04:02:16;5.32;;;2.90;;
53549;SDS011;67273;52.914;-0.982;2023-06-14T04:04:43;4.50;;;2.70;;
53549;SDS011;67273;52.914;-0.982;2023-06-14T04:07:11;5.78;;;2.80;;
53549;SDS011;67273;52.914;-0.982;2023-06-14T04:09:36;6.38;;;2.80;;
53549;SDS011;67273;52.914;-0.982;2023-06-14T04:12:02;5.68;;;2.88;;
53549;SDS011;67273;52.914;-0.982;2023-06-14T04:14:32;5.60;;;3.00;;
53549;SDS011;67273;52.914;-0.982;2023-06-14T04:17:00;4.57;;;2.78;;
53549;SDS011;67273;52.914;-0.982;2023-06-14T04:19:26;3.45;;;2.80;;
53549;SDS011;67273;52.914;-0.982;2023-06-14T04:21:52;4.75;;;2.72;;
53549;SDS011;67273;52.914;-0.982;2023-06-14T04:24:18;4.50;;;2.83;;
53549;SDS011;67273;52.914;-0.982;2023-06-14T04:26:48;4.13;;;2.72;;
53549;SDS011;67273;52.914;-0.982;2023-06-14T04:29:16;5.60;;;3.15;;
53549;SDS011;67273;52.914;-0.982;2023-06-14T04:31:51;4.13;;;2.97;;
53549;SDS011;67273;52.914;-0.982;2023-06-14T04:34:20;3.40;;;2.55;;
53549;SDS011;67273;52.914;-0.982;2023-06-14T04:36:54;4.78;;;2.83;;
53549;SDS011;67273;52.914;-0.982;2023-06-14T04:39:26;4.25;;;2.70;;
53549;SDS011;67273;52.914;-0.982;2023-06-14T04:41:53;4.65;;;2.90;;
53549;SDS011;67273;52.914;-0.982;2023-06-14T04:44:22;3.35;;;2.70;;
53549;SDS011;67273;52.914;-0.982;2023-06-14T04:46:58;4.25;;;2.90;;
53549;SDS011;67273;52.914;-0.982;2023-06-14T04:49:24;3.80;;;2.60;;
53549;SDS011;67273;52.914;-0.982;2023-06-14T04:51:52;3.53;;;2.45;;
53549;SDS011;67273;52.914;-0.982;2023-06-14T04:54:25;4.82;;;2.97;;
53549;SDS011;67273;52.914;-0.982;2023-06-14T04:56:52;4.93;;;2.88;;
53549;SDS011;67273;52.914;-0.982;2023-06-14T04:59:20;3.90;;;2.80;;
53549;SDS011;67273;52.914;-0.982;2023-06-14T05:01:48;5.10;;;2.70;;
53549;SDS011;67273;52.914;-0.982;2023-06-14T05:04:15;4.60;;;2.75;;
53549;SDS011;67273;52.914;-0.982;2023-06-14T05:06:41;2.72;;;2.38;;
53549;SDS011;67273;52.914;-0.982;2023-06-14T05:09:07;4.60;;;2.78;;
53549;SDS011;67273;52.914;-0.982;2023-06-14T05:11:33;5.20;;;2.80;;
53549;SDS011;67273;52.914;-0.982;2023-06-14T05:13:59;4.47;;;2.60;;
53549;SDS011;67273;52.914;-0.982;2023-06-14T05:16:25;3.80;;;2.60;;
53549;SDS011;67273;52.914;-0.982;2023-06-14T05:18:54;4.88;;;2.72;;
53549;SDS011;67273;52.914;-0.982;2023-06-14T05:21:21;4.85;;;2.58;;
53549;SDS011;67273;52.914;-0.982;2023-06-14T05:23:48;4.50;;;2.65;;
53549;SDS011;67273;52.914;-0.982;2023-06-14T05:26:14;5.82;;;2.80;;
53549;SDS011;67273;52.914;-0.982;2023-06-14T05:28:40;5.95;;;2.75;;
53549;SDS011;67273;52.914;-0.982;2023-06-14T05:31:05;6.05;;;2.70;;
53549;SDS011;67273;52.914;-0.982;2023-06-14T05:33:31;4.20;;;2.65;;
53549;SDS011;67273;52.914;-0.982;2023-06-14T05:35:57;3.58;;;2.55;;
53549;SDS011;67273;52.914;-0.982;2023-06-14T05:38:24;4.90;;;3.08;;
53549;SDS011;67273;52.914;-0.982;2023-06-14T05:40:50;4.60;;;2.55;;
53549;SDS011;67273;52.914;-0.982;2023-06-14T05:43:16;4.57;;;2.92;;
53549;SDS011;67273;52.914;-0.982;2023-06-14T05:45:42;4.40;;;2.75;;
53549;SDS011;67273;52.914;-0.982;2023-06-14T05:48:08;6.30;;;2.83;;
53549;SDS011;67273;52.914;-0.982;2023-06-14T05:50:33;4.88;;;3.00;;
53549;SDS011;67273;52.914;-0.982;2023-06-14T05:52:59;5.60;;;2.97;;
53549;SDS011;67273;52.914;-0.982;2023-06-14T05:55:26;5.10;;;3.10;;
53549;SDS011;67273;52.914;-0.982;2023-06-14T05:57:52;7.00;;;3.00;;
53549;SDS011;67273;52.914;-0.982;2023-06-14T06:00:18;7.88;;;3.10;;
53549;SDS011;67273;52.914;-0.982;2023-06-14T06:02:45;6.88;;;3.30;;
53549;SDS011;67273;52.914;-0.982;2023-06-14T06:05:13;6.15;;;3.13;;
53549;SDS011;67273;52.914;-0.982;2023-06-14T06:07:46;7.45;;;3.05;;
53549;SDS011;67273;52.914;-0.982;2023-06-14T06:10:15;7.82;;;3.35;;
53549;SDS011;67273;52.914;-0.982;2023-06-14T06:12:43;8.40;;;3.40;;
53549;SDS011;67273;52.914;-0.982;2023-06-14T06:15:10;9.70;;;3.30;;
53549;SDS011;67273;52.914;-0.982;2023-06-14T06:17:40;9.07;;;3.05;;
53549;SDS011;67273;52.914;-0.982;2023-06-14T06:20:08;10.32;;;3.47;;
53549;SDS011;67273;52.914;-0.982;2023-06-14T06:22:38;8.38;;;3.45;;
53549;SDS011;67273;52.914;-0.982;2023-06-14T06:25:09;6.85;;;3.30;;
53549;SDS011;67273;52.914;-0.982;2023-06-14T06:27:38;9.27;;;3.78;;
53549;SDS011;67273;52.914;-0.982;2023-06-14T06:30:09;6.50;;;3.05;;
53549;SDS011;67273;52.914;-0.982;2023-06-14T06:32:37;7.63;;;3.40;;
53549;SDS011;67273;52.914;-0.982;2023-06-14T06:35:03;11.13;;;3.42;;
53549;SDS011;67273;52.914;-0.982;2023-06-14T06:37:31;19.23;;;3.33;;
53549;SDS011;67273;52.914;-0.982;2023-06-14T06:39:58;8.02;;;3.30;;
53549;SDS011;67273;52.914;-0.982;2023-06-14T06:42:26;8.40;;;3.20;;
53549;SDS011;67273;52.914;-0.982;2023-06-14T06:44:58;6.80;;;2.90;;
53549;SDS011;67273;52.914;-0.982;2023-06-14T06:47:28;8.27;;;3.40;;
53549;SDS011;67273;52.914;-0.982;2023-06-14T06:49:53;7.07;;;3.30;;
53549;SDS011;67273;52.914;-0.982;2023-06-14T06:52:19;6.13;;;3.00;;
53549;SDS011;67273;52.914;-0.982;2023-06-14T06:54:45;10.25;;;3.15;;
53549;SDS011;67273;52.914;-0.982;2023-06-14T06:57:11;6.20;;;3.20;;
53549;SDS011;67273;52.914;-0.982;2023-06-14T06:59:36;9.52;;;3.45;;
53549;SDS011;67273;52.914;-0.982;2023-06-14T07:02:02;7.03;;;3.20;;
53549;SDS011;67273;52.914;-0.982;2023-06-14T07:04:30;9.10;;;3.17;;
53549;SDS011;67273;52.914;-0.982;2023-06-14T07:06:56;6.35;;;3.17;;
53549;SDS011;67273;52.914;-0.982;2023-06-14T07:09:22;10.25;;;3.50;;
53549;SDS011;67273;52.914;-0.982;2023-06-14T07:11:48;7.30;;;2.85;;
53549;SDS011;67273;52.914;-0.982;2023-06-14T07:14:14;8.18;;;3.30;;
53549;SDS011;67273;52.914;-0.982;2023-06-14T07:16:40;8.63;;;3.83;;
53549;SDS011;67273;52.914;-0.982;2023-06-14T07:19:06;6.85;;;3.13;;
53549;SDS011;67273;52.914;-0.982;2023-06-14T07:21:33;8.85;;;3.58;;
53549;SDS011;67273;52.914;-0.982;2023-06-14T07:23:59;11.80;;;4.05;;
53549;SDS011;67273;52.914;-0.982;2023-06-14T07:26:26;8.95;;;3.53;;
53549;SDS011;67273;52.914;-0.982;2023-06-14T07:28:54;10.32;;;3.92;;
53549;SDS011;67273;52.914;-0.982;2023-06-14T07:31:22;11.07;;;4.20;;
53549;SDS011;67273;52.914;-0.982;2023-06-14T07:33:51;8.70;;;3.40;;
53549;SDS011;67273;52.914;-0.982;2023-06-14T07:36:18;8.05;;;3.40;;
53549;SDS011;67273;52.914;-0.982;2023-06-14T07:38:45;8.80;;;3.72;;
53549;SDS011;67273;52.914;-0.982;2023-06-14T07:41:12;7.97;;;3.72;;
53549;SDS011;67273;52.914;-0.982;2023-06-14T07:43:37;11.55;;;3.67;;
53549;SDS011;67273;52.914;-0.982;2023-06-14T07:46:03;8.63;;;3.40;;
53549;SDS011;67273;52.914;-0.982;2023-06-14T07:48:29;7.65;;;3.33;;
53549;SDS011;67273;52.914;-0.982;2023-06-14T07:50:55;9.23;;;3.50;;
53549;SDS011;67273;52.914;-0.982;2023-06-14T07:53:22;9.75;;;3.30;;
53549;SDS011;67273;52.914;-0.982;2023-06-14T07:55:51;10.23;;;3.70;;
53549;SDS011;67273;52.914;-0.982;2023-06-14T07:58:16;10.13;;;3.53;;
53549;SDS011;67273;52.914;-0.982;2023-06-14T08:00:43;8.75;;;3.55;;
53549;SDS011;67273;52.914;-0.982;2023-06-14T08:03:12;11.50;;;3.50;;
53549;SDS011;67273;52.914;-0.982;2023-06-14T08:05:38;10.07;;;3.50;;
53549;SDS011;67273;52.914;-0.982;2023-06-14T08:08:04;8.02;;;3.50;;
53549;SDS011;67273;52.914;-0.982;2023-06-14T08:10:30;12.13;;;3.50;;
53549;SDS011;67273;52.914;-0.982;2023-06-14T08:12:57;8.95;;;3.30;;
53549;SDS011;67273;52.914;-0.982;2023-06-14T08:15:24;9.05;;;3.60;;
53549;SDS011;67273;52.914;-0.982;2023-06-14T08:17:49;9.15;;;3.58;;
53549;SDS011;67273;52.914;-0.982;2023-06-14T08:20:16;7.57;;;3.60;;
53549;SDS011;67273;52.914;-0.982;2023-06-14T08:22:42;7.28;;;3.33;;
53549;SDS011;67273;52.914;-0.982;2023-06-14T08:25:08;8.82;;;3.33;;
53549;SDS011;67273;52.914;-0.982;2023-06-14T08:27:35;7.57;;;3.33;;
53549;SDS011;67273;52.914;-0.982;2023-06-14T08:30:05;6.93;;;2.90;;
53549;SDS011;67273;52.914;-0.982;2023-06-14T08:32:33;11.60;;;3.67;;
53549;SDS011;67273;52.914;-0.982;2023-06-14T08:34:59;11.02;;;3.60;;
53549;SDS011;67273;52.914;-0.982;2023-06-14T08:37:25;10.18;;;3.58;;
53549;SDS011;67273;52.914;-0.982;2023-06-14T08:39:52;13.13;;;3.88;;
53549;SDS011;67273;52.914;-0.982;2023-06-14T08:42:17;10.80;;;3.70;;
53549;SDS011;67273;52.914;-0.982;2023-06-14T08:44:48;9.07;;;4.05;;
53549;SDS011;67273;52.914;-0.982;2023-06-14T08:47:15;13.35;;;3.75;;
53549;SDS011;67273;52.914;-0.982;2023-06-14T08:49:45;8.77;;;3.35;;
53549;SDS011;67273;52.914;-0.982;2023-06-14T08:52:14;13.60;;;3.50;;
53549;SDS011;67273;52.914;-0.982;2023-06-14T08:54:45;12.23;;;3.83;;
53549;SDS011;67273;52.914;-0.982;2023-06-14T08:57:14;7.75;;;3.30;;
53549;SDS011;67273;52.914;-0.982;2023-06-14T08:59:45;7.93;;;3.38;;
53549;SDS011;67273;52.914;-0.982;2023-06-14T09:02:16;9.13;;;3.53;;
53549;SDS011;67273;52.914;-0.982;2023-06-14T09:04:45;11.80;;;3.58;;
53549;SDS011;67273;52.914;-0.982;2023-06-14T09:07:10;12.68;;;3.95;;
53549;SDS011;67273;52.914;-0.982;2023-06-14T09:09:38;12.05;;;4.07;;
53549;SDS011;67273;52.914;-0.982;2023-06-14T09:12:06;12.00;;;3.65;;
53549;SDS011;67273;52.914;-0.982;2023-06-14T09:14:35;8.35;;;3.67;;
53549;SDS011;67273;52.914;-0.982;2023-06-14T09:17:03;8.82;;;3.47;;
53549;SDS011;67273;52.914;-0.982;2023-06-14T09:19:32;12.63;;;4.40;;
53549;SDS011;67273;52.914;-0.982;2023-06-14T09:22:00;9.80;;;3.83;;
53549;SDS011;67273;52.914;-0.982;2023-06-14T09:24:26;7.93;;;3.35;;
53549;SDS011;67273;52.914;-0.982;2023-06-14T09:26:52;9.95;;;3.58;;
53549;SDS011;67273;52.914;-0.982;2023-06-14T09:29:19;12.57;;;3.55;;
53549;SDS011;67273;52.914;-0.982;2023-06-14T09:31:45;11.13;;;3.63;;
53549;SDS011;67273;52.914;-0.982;2023-06-14T09:34:12;11.05;;;3.08;;
53549;SDS011;67273;52.914;-0.982;2023-06-14T09:36:39;6.18;;;2.97;;
53549;SDS011;67273;52.914;-0.982;2023-06-14T09:39:07;20.38;;;3.33;;
53549;SDS011;67273;52.914;-0.982;2023-06-14T09:41:34;11.50;;;3.30;;
53549;SDS011;67273;52.914;-0.982;2023-06-14T09:44:00;8.38;;;2.90;;
53549;SDS011;67273;52.914;-0.982;2023-06-14T09:46:29;8.38;;;3.40;;
53549;SDS011;67273;52.914;-0.982;2023-06-14T09:48:56;7.95;;;3.92;;
53549;SDS011;67273;52.914;-0.982;2023-06-14T09:51:25;7.00;;;3.17;;
53549;SDS011;67273;52.914;-0.982;2023-06-14T09:53:53;6.95;;;3.40;;
53549;SDS011;67273;52.914;-0.982;2023-06-14T09:56:26;7.47;;;3.47;;
53549;SDS011;67273;52.914;-0.982;2023-06-14T09:58:58;10.02;;;3.10;;
53549;SDS011;67273;52.914;-0.982;2023-06-14T10:01:25;8.20;;;3.13;;
53549;SDS011;67273;52.914;-0.982;2023-06-14T10:03:55;9.90;;;3.40;;
53549;SDS011;67273;52.914;-0.982;2023-06-14T10:06:27;6.20;;;2.70;;
53549;SDS011;67273;52.914;-0.982;2023-06-14T10:08:56;9.60;;;3.17;;
53549;SDS011;67273;52.914;-0.982;2023-06-14T10:11:25;9.35;;;3.25;;
53549;SDS011;67273;52.914;-0.982;2023-06-14T10:13:50;7.25;;;2.95;;
53549;SDS011;67273;52.914;-0.982;2023-06-14T10:16:17;7.57;;;2.95;;
53549;SDS011;67273;52.914;-0.982;2023-06-14T10:18:49;5.75;;;2.75;;
53549;SDS011;67273;52.914;-0.982;2023-06-14T10:21:23;6.70;;;2.72;;
53549;SDS011;67273;52.914;-0.982;2023-06-14T10:23:57;6.90;;;2.90;;
53549;SDS011;67273;52.914;-0.982;2023-06-14T10:26:26;6.32;;;2.67;;
53549;SDS011;67273;52.914;-0.982;2023-06-14T10:28:56;5.13;;;2.50;;
53549;SDS011;67273;52.914;-0.982;2023-06-14T10:31:29;5.40;;;2.58;;
53549;SDS011;67273;52.914;-0.982;2023-06-14T10:34:06;8.35;;;2.92;;
53549;SDS011;67273;52.914;-0.982;2023-06-14T10:36:33;5.55;;;2.60;;
53549;SDS011;67273;52.914;-0.982;2023-06-14T10:39:08;5.40;;;2.53;;
53549;SDS011;67273;52.914;-0.982;2023-06-14T10:41:41;6.55;;;2.67;;
53549;SDS011;67273;52.914;-0.982;2023-06-14T10:47:07;7.32;;;3.10;;
53549;SDS011;67273;52.914;-0.982;2023-06-14T10:49:42;6.07;;;2.80;;
53549;SDS011;67273;52.914;-0.982;2023-06-14T10:52:13;6.13;;;2.50;;
53549;SDS011;67273;52.914;-0.982;2023-06-14T10:55:05;6.32;;;2.40;;
53549;SDS011;67273;52.914;-0.982;2023-06-14T10:57:36;4.78;;;2.58;;
53549;SDS011;67273;52.914;-0.982;2023-06-14T11:00:05;3.70;;;2.28;;
53549;SDS011;67273;52.914;-0.982;2023-06-14T11:02:48;5.28;;;2.60;;
53549;SDS011;67273;52.914;-0.982;2023-06-14T11:08:27;4.80;;;2.20;;
53549;SDS011;67273;52.914;-0.982;2023-06-14T11:11:08;4.82;;;2.50;;
53549;SDS011;67273;52.914;-0.982;2023-06-14T11:13:38;5.68;;;2.53;;
53549;SDS011;67273;52.914;-0.982;2023-06-14T11:16:10;5.10;;;2.38;;
53549;SDS011;67273;52.914;-0.982;2023-06-14T11:18:38;7.00;;;2.90;;
53549;SDS011;67273;52.914;-0.982;2023-06-14T11:21:06;5.72;;;2.75;;
53549;SDS011;67273;52.914;-0.982;2023-06-14T11:23:36;7.82;;;2.90;;
53549;SDS011;67273;52.914;-0.982;2023-06-14T11:26:05;5.63;;;2.85;;
53549;SDS011;67273;52.914;-0.982;2023-06-14T11:28:40;8.00;;;2.58;;
53549;SDS011;67273;52.914;-0.982;2023-06-14T11:31:09;3.92;;;2.40;;
53549;SDS011;67273;52.914;-0.982;2023-06-14T11:33:39;8.05;;;2.63;;
53549;SDS011;67273;52.914;-0.982;2023-06-14T11:36:06;6.03;;;2.47;;
53549;SDS011;67273;52.914;-0.982;2023-06-14T11:38:38;7.03;;;2.55;;
53549;SDS011;67273;52.914;-0.982;2023-06-14T11:41:07;4.70;;;2.33;;
53549;SDS011;67273;52.914;-0.982;2023-06-14T11:43:35;4.90;;;2.55;;
53549;SDS011;67273;52.914;-0.982;2023-06-14T11:46:11;7.38;;;2.60;;
53549;SDS011;67273;52.914;-0.982;2023-06-14T11:48:44;6.82;;;2.67;;
53549;SDS011;67273;52.914;-0.982;2023-06-14T11:51:11;5.53;;;2.20;;
53549;SDS011;67273;52.914;-0.982;2023-06-14T11:53:40;4.45;;;2.50;;
53549;SDS011;67273;52.914;-0.982;2023-06-14T11:56:10;4.90;;;2.45;;
53549;SDS011;67273;52.914;-0.982;2023-06-14T11:58:39;5.43;;;2.47;;
53549;SDS011;67273;52.914;-0.982;2023-06-14T12:01:11;5.97;;;2.42;;
53549;SDS011;67273;52.914;-0.982;2023-06-14T12:03:46;7.68;;;2.35;;
53549;SDS011;67273;52.914;-0.982;2023-06-14T12:06:16;6.57;;;2.47;;
53549;SDS011;67273;52.914;-0.982;2023-06-14T12:08:54;5.20;;;2.45;;
53549;SDS011;67273;52.914;-0.982;2023-06-14T12:11:22;4.35;;;2.22;;
53549;SDS011;67273;52.914;-0.982;2023-06-14T12:13:49;5.22;;;2.25;;
53549;SDS011;67273;52.914;-0.982;2023-06-14T12:16:19;5.35;;;2.53;;
53549;SDS011;67273;52.914;-0.982;2023-06-14T12:18:48;7.00;;;2.55;;
53549;SDS011;67273;52.914;-0.982;2023-06-14T12:21:17;5.38;;;2.40;;
53549;SDS011;67273;52.914;-0.982;2023-06-14T12:23:52;7.05;;;2.45;;
53549;SDS011;67273;52.914;-0.982;2023-06-14T12:26:20;4.90;;;2.20;;
53549;SDS011;67273;52.914;-0.982;2023-06-14T12:28:47;4.15;;;2.13;;
53549;SDS011;67273;52.914;-0.982;2023-06-14T12:31:16;5.43;;;2.25;;
53549;SDS011;67273;52.914;-0.982;2023-06-14T12:33:46;4.15;;;2.25;;
53549;SDS011;67273;52.914;-0.982;2023-06-14T12:36:14;7.10;;;2.35;;
53549;SDS011;67273;52.914;-0.982;2023-06-14T12:38:40;4.10;;;2.05;;
53549;SDS011;67273;52.914;-0.982;2023-06-14T12:41:08;4.45;;;2.33;;
53549;SDS011;67273;52.914;-0.982;2023-06-14T12:43:35;5.38;;;2.33;;
53549;SDS011;67273;52.914;-0.982;2023-06-14T12:46:03;4.38;;;2.28;;
53549;SDS011;67273;52.914;-0.982;2023-06-14T12:48:31;5.28;;;1.90;;
53549;SDS011;67273;52.914;-0.982;2023-06-14T12:50:58;4.13;;;2.20;;
53549;SDS011;67273;52.914;-0.982;2023-06-14T12:53:25;2.97;;;2.03;;
53549;SDS011;67273;52.914;-0.982;2023-06-14T12:55:51;4.20;;;2.40;;
53549;SDS011;67273;52.914;-0.982;2023-06-14T12:58:20;4.15;;;2.40;;
53549;SDS011;67273;52.914;-0.982;2023-06-14T13:00:49;4.60;;;2.15;;
53549;SDS011;67273;52.914;-0.982;2023-06-14T13:03:16;10.25;;;2.50;;
53549;SDS011;67273;52.914;-0.982;2023-06-14T13:05:41;4.35;;;2.00;;
53549;SDS011;67273;52.914;-0.982;2023-06-14T13:08:10;8.63;;;2.40;;
53549;SDS011;67273;52.914;-0.982;2023-06-14T13:10:38;3.65;;;1.98;;
53549;SDS011;67273;52.914;-0.982;2023-06-14T13:13:04;5.38;;;2.03;;
53549;SDS011;67273;52.914;-0.982;2023-06-14T13:15:33;4.57;;;2.00;;
53549;SDS011;67273;52.914;-0.982;2023-06-14T13:18:01;5.13;;;2.25;;
53549;SDS011;67273;52.914;-0.982;2023-06-14T13:20:29;7.90;;;2.22;;
53549;SDS011;67273;52.914;-0.982;2023-06-14T13:22:56;5.22;;;2.20;;
53549;SDS011;67273;52.914;-0.982;2023-06-14T13:25:26;3.70;;;2.10;;
53549;SDS011;67273;52.914;-0.982;2023-06-14T13:27:52;2.83;;;1.80;;
53549;SDS011;67273;52.914;-0.982;2023-06-14T13:30:19;3.83;;;2.10;;
53549;SDS011;67273;52.914;-0.982;2023-06-14T13:32:47;4.00;;;2.10;;
53549;SDS011;67273;52.914;-0.982;2023-06-14T13:35:18;2.80;;;1.80;;
53549;SDS011;67273;52.914;-0.982;2023-06-14T13:37:45;3.42;;;1.90;;
53549;SDS011;67273;52.914;-0.982;2023-06-14T13:40:12;2.22;;;1.98;;
53549;SDS011;67273;52.914;-0.982;2023-06-14T13:42:42;5.57;;;2.25;;
53549;SDS011;67273;52.914;-0.982;2023-06-14T13:45:11;3.25;;;1.85;;
53549;SDS011;67273;52.914;-0.982;2023-06-14T13:47:40;4.50;;;2.05;;
53549;SDS011;67273;52.914;-0.982;2023-06-14T13:50:08;4.72;;;1.90;;
53549;SDS011;67273;52.914;-0.982;2023-06-14T13:52:36;3.17;;;2.00;;
53549;SDS011;67273;52.914;-0.982;2023-06-14T13:55:04;2.90;;;2.05;;
53549;SDS011;67273;52.914;-0.982;2023-06-14T13:57:32;3.83;;;1.98;;
53549;SDS011;67273;52.914;-0.982;2023-06-14T14:00:01;5.35;;;2.10;;
53549;SDS011;67273;52.914;-0.982;2023-06-14T14:02:38;4.78;;;2.30;;
53549;SDS011;67273;52.914;-0.982;2023-06-14T14:05:08;6.22;;;2.22;;
53549;SDS011;67273;52.914;-0.982;2023-06-14T14:07:34;3.60;;;1.85;;
53549;SDS011;67273;52.914;-0.982;2023-06-14T14:10:02;2.75;;;1.90;;
53549;SDS011;67273;52.914;-0.982;2023-06-14T14:12:30;2.55;;;1.80;;
53549;SDS011;67273;52.914;-0.982;2023-06-14T14:14:57;3.40;;;2.28;;
53549;SDS011;67273;52.914;-0.982;2023-06-14T14:17:27;3.42;;;2.00;;
53549;SDS011;67273;52.914;-0.982;2023-06-14T14:19:59;3.97;;;2.08;;
53549;SDS011;67273;52.914;-0.982;2023-06-14T14:22:27;3.00;;;2.00;;
53549;SDS011;67273;52.914;-0.982;2023-06-14T14:24:54;3.22;;;1.85;;
53549;SDS011;67273;52.914;-0.982;2023-06-14T14:27:22;3.05;;;1.85;;
53549;SDS011;67273;52.914;-0.982;2023-06-14T14:29:50;3.70;;;1.90;;
53549;SDS011;67273;52.914;-0.982;2023-06-14T14:32:17;2.65;;;1.77;;
53549;SDS011;67273;52.914;-0.982;2023-06-14T14:34:44;3.33;;;1.80;;
53549;SDS011;67273;52.914;-0.982;2023-06-14T14:37:11;4.32;;;2.10;;
53549;SDS011;67273;52.914;-0.982;2023-06-14T14:39:40;3.65;;;1.98;;
53549;SDS011;67273;52.914;-0.982;2023-06-14T14:42:08;6.30;;;2.20;;
53549;SDS011;67273;52.914;-0.982;2023-06-14T14:44:39;3.33;;;2.10;;